Time;durP1;ratioP1;P1;durP2;ratioP2;P2;SDS_P1;SDS_P2;PMS_P1;PMS_P2;Temp;Humidity;BMP_temperature;BMP_pressure;BME280_temperature;BME280_humidity;BME280_pressure;Samples;Min_cycle;Max_cycle;Signal;HPM_P1;HPM_P2
2021/12/05 00:20:08;;;;;;;3.20;1.50;;;;;;;3.81;97.15;95484.00;5079383;28;20750;-67
2021/12/05 00:22:37;;;;;;;2.60;1.65;;;;;;;3.79;96.42;95483.41;5092368;28;20464;-67
2021/12/05 00:25:06;;;;;;;4.87;1.50;;;;;;;3.70;97.83;95488.09;5092659;28;20409;-67
2021/12/05 00:27:39;;;;;;;4.68;1.60;;;;;;;3.63;97.52;95484.78;5092620;28;20386;-67
2021/12/05 00:46:15;;;;;;;3.30;1.40;;;;;;;3.81;97.25;95484.00;5091971;28;20412;-67
2021/12/05 01:16:30;;;;;;;2.28;1.50;;;;;;;3.78;94.55;95484.44;5091744;28;20393;-67
2021/12/05 01:18:56;;;;;;;3.65;1.50;;;;;;;3.79;95.31;95495.59;5091657;28;20386;-67
2021/12/05 01:21:23;;;;;;;2.15;1.67;;;;;;;3.79;95.01;95495.59;5089707;28;20443;-67
2021/12/05 01:26:54;;;;;;;2.45;1.30;;;;;;;3.66;94.87;95491.34;5091926;28;20421;-67
2021/12/05 01:37:11;;;;;;;2.30;1.10;;;;;;;3.63;95.00;95497.72;5091653;28;20564;-67
2021/12/05 01:47:55;;;;;;;2.20;1.40;;;;;;;3.81;94.70;95509.09;5091372;28;20432;-67
2021/12/05 01:53:36;;;;;;;2.58;1.45;;;;;;;4.01;93.51;95509.69;5095682;28;20501;-67
2021/12/05 02:42:16;;;;;;;2.28;1.30;;;;;;;3.23;95.66;95465.47;5085287;28;20489;-67
2021/12/05 02:44:44;;;;;;;2.95;1.40;;;;;;;3.26;95.78;95459.84;5093655;28;20390;-67
2021/12/05 02:47:17;;;;;;;1.65;1.20;;;;;;;3.27;95.52;95462.22;5094294;28;20881;-67
2021/12/05 02:49:46;;;;;;;2.22;1.40;;;;;;;3.32;95.63;95456.41;5094597;28;20407;-66
2021/12/05 02:52:20;;;;;;;2.13;1.30;;;;;;;3.26;95.29;95460.63;5094441;28;20430;-66
2021/12/05 02:54:51;;;;;;;2.75;1.50;;;;;;;3.37;94.07;95469.50;5094327;28;20460;-67
2021/12/05 02:57:19;;;;;;;2.35;1.30;;;;;;;3.42;94.65;95467.06;5094288;28;20382;-67
2021/12/05 02:59:53;;;;;;;1.83;1.23;;;;;;;3.35;95.35;95464.53;5093952;28;20890;-66
2021/12/05 03:02:26;;;;;;;2.17;1.40;;;;;;;3.34;94.43;95465.53;5092726;28;20522;-66
2021/12/05 03:04:53;;;;;;;2.55;1.48;;;;;;;3.48;94.33;95468.78;5093973;28;20399;-67
2021/12/05 03:07:25;;;;;;;1.70;1.33;;;;;;;3.58;93.84;95463.91;5094315;28;20432;-67
2021/12/05 03:09:51;;;;;;;2.97;1.35;;;;;;;3.73;92.73;95463.56;5094127;28;20394;-67
2021/12/05 03:12:18;;;;;;;1.73;1.60;;;;;;;3.56;93.54;95463.34;5093518;28;20410;-67
2021/12/05 03:14:46;;;;;;;3.30;1.60;;;;;;;3.44;93.92;95456.50;5093601;28;20386;-67
2021/12/05 03:17:12;;;;;;;2.65;1.45;;;;;;;3.53;94.04;95457.78;5079049;28;20418;-67
2021/12/05 03:19:38;;;;;;;2.73;1.40;;;;;;;3.54;94.06;95459.38;5086206;28;20390;-67
2021/12/05 03:22:03;;;;;;;2.47;1.43;;;;;;;3.56;93.46;95459.97;5076970;28;20756;-67
2021/12/05 03:24:29;;;;;;;2.33;1.38;;;;;;;3.66;92.68;95458.44;5092249;28;20766;-65
2021/12/05 03:26:56;;;;;;;4.82;1.40;;;;;;;3.58;92.93;95452.75;5093668;28;20388;-65
2021/12/05 03:29:23;;;;;;;3.28;1.70;;;;;;;3.48;94.09;95450.66;5092986;28;20402;-65
2021/12/05 03:31:50;;;;;;;3.08;1.55;;;;;;;3.69;92.26;95447.63;5093779;28;20418;-65
2021/12/05 03:34:17;;;;;;;4.32;1.70;;;;;;;3.79;92.11;95444.53;5093314;28;20392;-66
2021/12/05 03:36:46;;;;;;;2.80;1.40;;;;;;;3.63;92.17;95437.34;5093498;28;20426;-65
2021/12/05 03:39:12;;;;;;;2.45;1.30;;;;;;;3.43;93.96;95442.75;5093278;28;20396;-65
2021/12/05 03:41:39;;;;;;;2.60;1.52;;;;;;;3.54;92.44;95431.69;5093431;28;20394;-65
2021/12/05 03:44:07;;;;;;;3.05;1.70;;;;;;;3.29;94.32;95426.53;5093582;28;20477;-65
2021/12/05 03:46:33;;;;;;;4.55;1.65;;;;;;;3.33;93.36;95435.47;5092746;28;20393;-65
2021/12/05 03:49:07;;;;;;;2.80;1.23;;;;;;;3.28;94.30;95431.97;5093562;28;20850;-65
2021/12/05 03:51:37;;;;;;;3.28;1.60;;;;;;;3.21;94.45;95434.59;5092847;28;20394;-66
2021/12/05 03:54:06;;;;;;;1.88;1.40;;;;;;;3.06;94.80;95433.34;5093710;28;20904;-65
2021/12/05 03:56:33;;;;;;;4.10;1.30;;;;;;;3.05;94.50;95429.97;5092891;28;20397;-65
2021/12/05 03:58:58;;;;;;;1.30;1.20;;;;;;;3.06;94.52;95423.00;5092834;28;20497;-65
2021/12/05 04:01:25;;;;;;;4.80;1.70;;;;;;;3.12;93.89;95427.34;5092350;28;20485;-65
2021/12/05 04:03:54;;;;;;;2.15;1.50;;;;;;;3.15;94.32;95421.72;5092992;28;20401;-65
2021/12/05 04:06:21;;;;;;;3.15;1.40;;;;;;;3.23;92.40;95426.63;5074982;28;20449;-65
2021/12/05 04:08:48;;;;;;;3.40;1.30;;;;;;;3.08;93.37;95433.91;5092704;28;20475;-67
2021/12/05 04:11:21;;;;;;;4.17;1.63;;;;;;;3.13;92.76;95432.28;5092626;28;20774;-65
2021/12/05 04:13:47;;;;;;;1.98;1.50;;;;;;;3.01;93.83;95428.78;5092027;28;20694;-65
2021/12/05 04:16:14;;;;;;;3.58;1.48;;;;;;;2.85;93.87;95435.31;5093029;28;20386;-66
2021/12/05 04:18:40;;;;;;;1.25;1.10;;;;;;;3.05;93.26;95437.75;5091970;28;20389;-66
2021/12/05 04:21:06;;;;;;;2.95;1.42;;;;;;;2.93;94.13;95445.41;5092244;28;20397;-65
2021/12/05 04:23:32;;;;;;;4.55;1.25;;;;;;;3.00;94.06;95437.59;5090971;28;20386;-65
2021/12/05 04:25:58;;;;;;;2.88;1.27;;;;;;;3.17;92.35;95443.00;5092708;28;20394;-65
2021/12/05 04:28:24;;;;;;;2.30;1.30;;;;;;;3.22;93.40;95440.56;5092118;28;20393;-65
2021/12/05 04:30:50;;;;;;;1.88;1.25;;;;;;;3.28;93.05;95435.34;5092149;28;20402;-65
2021/12/05 04:33:16;;;;;;;2.75;1.30;;;;;;;3.35;91.38;95438.63;5091958;28;20896;-65
2021/12/05 04:35:41;;;;;;;3.90;1.20;;;;;;;3.18;92.77;95437.59;5091943;28;20459;-65
2021/12/05 04:38:07;;;;;;;1.55;1.25;;;;;;;3.37;91.71;95442.81;5092336;28;20397;-65
2021/12/05 04:40:33;;;;;;;3.00;1.40;;;;;;;3.24;93.26;95441.13;5090961;28;20455;-65
2021/12/05 04:43:00;;;;;;;2.90;1.50;;;;;;;3.49;91.29;95438.50;5092266;28;20862;-65
2021/12/05 04:45:29;;;;;;;3.95;1.40;;;;;;;3.33;91.52;95437.28;5092281;28;20401;-68
2021/12/05 04:47:55;;;;;;;2.13;1.65;;;;;;;3.41;92.08;95439.56;5091714;28;20386;-65
2021/12/05 04:50:20;;;;;;;2.15;1.50;;;;;;;3.44;91.51;95440.97;5092027;28;20393;-66
2021/12/05 04:52:48;;;;;;;2.75;1.40;;;;;;;3.25;92.75;95442.72;5091879;28;20499;-65
2021/12/05 04:55:13;;;;;;;2.90;1.50;;;;;;;3.28;93.01;95444.91;5092390;28;20536;-65
2021/12/05 04:57:40;;;;;;;2.33;1.30;;;;;;;3.33;92.90;95451.03;5092059;28;20469;-66
2021/12/05 05:00:11;;;;;;;2.08;1.17;;;;;;;3.32;92.97;95451.22;5092039;28;20754;-65
2021/12/05 05:02:36;;;;;;;2.83;1.55;;;;;;;3.30;92.92;95454.03;5091406;28;20402;-65
2021/12/05 05:05:02;;;;;;;2.33;1.40;;;;;;;3.21;93.64;95457.91;5092016;28;20394;-65
2021/12/05 05:07:29;;;;;;;2.35;1.10;;;;;;;3.26;93.60;95454.66;5091476;28;20946;-66
2021/12/05 05:09:59;;;;;;;3.00;1.27;;;;;;;3.20;94.02;95455.53;5091809;28;20394;-65
2021/12/05 05:12:24;;;;;;;2.70;1.38;;;;;;;3.21;94.12;95459.69;5092367;28;20402;-65
2021/12/05 05:14:51;;;;;;;2.30;1.30;;;;;;;2.92;96.99;95464.50;5091811;28;20405;-65
2021/12/05 05:17:18;;;;;;;3.92;1.38;;;;;;;2.97;97.22;95466.47;5091956;28;20401;-65
2021/12/05 05:19:57;;;;;;;2.83;1.23;;;;;;;2.98;97.39;95464.66;5091608;28;20463;-65
2021/12/05 05:22:48;;;;;;;3.90;1.60;;;;;;;2.71;98.81;95458.91;5091574;28;20409;-67
2021/12/05 05:43:51;;;;;;;2.38;1.35;;;;;;;2.44;98.92;95443.56;5091833;28;20469;-66
2021/12/05 05:46:20;;;;;;;2.17;1.20;;;;;;;2.48;98.92;95449.91;5091536;28;20387;-66
2021/12/05 05:48:52;;;;;;;1.52;1.20;;;;;;;2.30;100.00;95452.41;5090395;28;20406;-66
2021/12/05 05:51:18;;;;;;;2.58;1.40;;;;;;;2.37;99.58;95445.41;5090030;28;20441;-67
2021/12/05 05:53:47;;;;;;;2.83;1.40;;;;;;;2.19;99.98;95447.09;5090857;28;20428;-68
2021/12/05 05:56:18;;;;;;;3.42;1.40;;;;;;;2.28;100.00;95446.66;5091484;28;20386;-66
2021/12/05 05:59:03;;;;;;;2.93;1.47;;;;;;;2.26;100.00;95451.25;5091093;28;20480;-67
2021/12/05 06:04:01;;;;;;;3.70;1.40;;;;;;;2.44;99.10;95453.13;5090042;28;20390;-67
2021/12/05 06:06:27;;;;;;;4.78;1.50;;;;;;;2.17;100.00;95456.88;5091225;28;20388;-66
2021/12/05 06:08:53;;;;;;;2.92;1.48;;;;;;;2.16;100.00;95450.91;5091533;28;20400;-66
2021/12/05 06:11:18;;;;;;;1.33;1.20;;;;;;;2.29;100.00;95452.59;5073868;28;20419;-66
2021/12/05 06:13:45;;;;;;;2.17;1.30;;;;;;;2.40;98.61;95451.94;5090558;28;20473;-66
2021/12/05 06:16:12;;;;;;;2.65;1.52;;;;;;;2.19;99.74;95449.69;5091485;28;20390;-65
2021/12/05 06:18:39;;;;;;;2.90;1.30;;;;;;;2.23;99.97;95458.63;5091128;28;20401;-66
2021/12/05 06:21:05;;;;;;;3.17;1.37;;;;;;;2.17;100.00;95457.66;5091390;28;20454;-65
2021/12/05 06:23:31;;;;;;;2.75;1.25;;;;;;;2.20;99.33;95459.03;5090756;28;20386;-66
2021/12/05 06:25:56;;;;;;;2.63;1.13;;;;;;;2.21;99.51;95460.59;5090757;28;20471;-66
2021/12/05 06:28:30;;;;;;;3.63;1.30;;;;;;;2.13;100.00;95455.66;5091537;28;20470;-66
2021/12/05 06:31:13;;;;;;;4.28;1.60;;;;;;;2.07;100.00;95455.50;5090656;28;20390;-66
2021/12/05 06:47:00;;;;;;;2.35;1.50;;;;;;;1.87;100.00;95454.00;5094271;28;20443;-66
2021/12/05 06:49:26;;;;;;;2.97;1.40;;;;;;;1.89;100.00;95455.41;5094776;28;20400;-66
2021/12/05 06:51:51;;;;;;;2.25;1.30;;;;;;;1.99;100.00;95450.59;5094199;28;20448;-66
2021/12/05 06:54:17;;;;;;;4.05;1.40;;;;;;;1.98;100.00;95450.78;5093450;28;20472;-66
2021/12/05 06:56:43;;;;;;;3.87;1.47;;;;;;;1.87;100.00;95456.59;5094558;28;20390;-66
2021/12/05 06:59:08;;;;;;;2.55;1.30;;;;;;;1.90;100.00;95459.53;5092557;28;20416;-67
2021/12/05 07:01:33;;;;;;;2.13;1.10;;;;;;;2.00;100.00;95459.94;5093436;28;20450;-66
2021/12/05 07:04:06;;;;;;;2.30;1.43;;;;;;;1.89;100.00;95467.53;5093789;28;20390;-66
2021/12/05 07:06:32;;;;;;;1.27;1.05;;;;;;;1.84;100.00;95468.09;5093896;28;20398;-66
2021/12/05 07:09:05;;;;;;;2.05;1.15;;;;;;;1.86;100.00;95470.50;5092576;28;20393;-66
2021/12/05 07:11:48;;;;;;;1.80;1.40;;;;;;;2.01;100.00;95465.84;5093825;28;20406;-66
2021/12/05 07:17:01;;;;;;;2.33;1.33;;;;;;;2.00;100.00;95472.03;5093467;28;20950;-66
2021/12/05 07:21:58;;;;;;;3.17;1.30;;;;;;;2.00;100.00;95470.25;5093659;28;20842;-66
2021/12/05 07:40:29;;;;;;;2.25;1.52;;;;;;;2.16;100.00;95473.38;5093096;28;20885;-66
2021/12/05 07:43:00;;;;;;;3.92;1.20;;;;;;;2.31;99.45;95466.13;5093039;28;20893;-66
2021/12/05 07:45:34;;;;;;;2.85;1.40;;;;;;;2.36;99.18;95468.88;5092889;28;20386;-66
2021/12/05 07:48:08;;;;;;;4.25;1.50;;;;;;;2.33;98.95;95471.88;5093044;28;20870;-66
2021/12/05 07:50:46;;;;;;;2.20;1.50;;;;;;;2.27;99.10;95468.34;5088432;28;20405;-66
2021/12/05 07:53:19;;;;;;;1.70;1.25;;;;;;;2.40;98.86;95467.44;5093122;28;20398;-66
2021/12/05 07:55:47;;;;;;;3.40;1.40;;;;;;;2.20;99.25;95475.31;5093221;28;20390;-66
2021/12/05 08:14:47;;;;;;;3.10;1.35;;;;;;;2.89;96.26;95498.59;5090824;28;20464;-65
2021/12/05 08:17:19;;;;;;;2.53;1.27;;;;;;;3.18;94.58;95491.16;5093172;28;20386;-66
2021/12/05 08:19:45;;;;;;;2.63;1.35;;;;;;;3.15;93.15;95491.59;5092552;28;20969;-67
2021/12/05 08:22:11;;;;;;;3.67;1.30;;;;;;;3.13;93.23;95489.22;5092254;28;20409;-66
2021/12/05 08:24:40;;;;;;;3.65;1.90;;;;;;;2.88;94.32;95494.41;5092347;28;20469;-66
2021/12/05 08:27:07;;;;;;;1.65;1.30;;;;;;;3.17;92.40;95493.00;5092668;28;20390;-66
2021/12/05 08:29:48;;;;;;;2.20;1.40;;;;;;;3.07;92.79;95491.84;5092691;28;20401;-66
2021/12/05 08:32:26;;;;;;;1.30;1.08;;;;;;;3.30;90.93;95484.28;5091609;28;20780;-67
2021/12/05 08:35:51;;;;;;;1.30;1.20;;;;;;;3.27;90.94;95492.50;5092195;28;20457;-65
2021/12/05 08:38:38;;;;;;;2.90;1.40;;;;;;;3.36;90.92;95488.63;5086089;28;20405;-64
2021/12/05 08:46:20;;;;;;;1.95;1.27;;;;;;;3.66;89.33;95491.34;5092461;28;20394;-64
2021/12/05 09:26:51;;;;;;;2.60;1.58;;;;;;;3.59;92.11;95503.56;5091202;28;20731;-67
2021/12/05 09:51:17;;;;;;;1.30;1.15;;;;;;;4.85;84.84;95506.19;5091266;28;20490;-66
2021/12/05 10:13:12;;;;;;;1.73;1.10;;;;;;;5.12;80.79;95480.66;5094538;28;20421;-66
2021/12/05 10:19:13;;;;;;;1.42;1.10;;;;;;;5.34;80.98;95485.06;5094751;28;20468;-66
2021/12/05 10:37:22;;;;;;;2.60;1.08;;;;;;;5.64;78.16;95476.34;5094412;28;20390;-67
2021/12/05 10:40:13;;;;;;;2.38;1.00;;;;;;;5.64;78.08;95476.34;5094561;28;20402;-67
2021/12/05 10:42:44;;;;;;;2.28;1.10;;;;;;;5.59;77.95;95464.03;5094584;28;20389;-66
2021/12/05 10:45:18;;;;;;;1.42;0.95;;;;;;;5.81;77.72;95464.22;5093720;28;20410;-67
2021/12/05 10:47:50;;;;;;;0.90;0.88;;;;;;;5.76;76.74;95454.53;5093440;28;20788;-67
2021/12/05 10:50:44;;;;;;;1.50;0.93;;;;;;;5.83;76.88;95457.00;5094396;28;20391;-67
2021/12/05 10:53:17;;;;;;;1.02;0.90;;;;;;;5.70;78.02;95452.03;5091782;28;20430;-67
2021/12/05 10:55:43;;;;;;;1.45;1.00;;;;;;;5.99;76.80;95452.91;5093842;28;20418;-67
2021/12/05 10:58:09;;;;;;;1.25;0.90;;;;;;;5.89;76.98;95448.31;5088998;28;20776;-68
2021/12/05 11:00:34;;;;;;;0.90;0.90;;;;;;;6.03;76.75;95448.81;5086196;28;20545;-68
2021/12/05 11:03:18;;;;;;;0.80;0.80;;;;;;;5.74;78.37;95446.16;5093229;28;20390;-68
2021/12/05 11:05:45;;;;;;;1.20;1.10;;;;;;;5.93;77.45;95444.22;5093648;28;20478;-67
2021/12/05 11:08:36;;;;;;;1.10;0.93;;;;;;;6.08;77.25;95443.72;5092652;28;20391;-67
2021/12/05 11:11:14;;;;;;;2.53;1.08;;;;;;;5.73;77.05;95438.59;5093362;28;20391;-68
2021/12/05 11:13:43;;;;;;;1.20;0.90;;;;;;;5.68;76.76;95431.50;5093601;28;20394;-67
2021/12/05 11:16:39;;;;;;;1.90;0.88;;;;;;;5.71;77.78;95432.81;5092662;28;20800;-66
2021/12/05 11:19:15;;;;;;;1.42;0.90;;;;;;;5.89;77.38;95424.13;5075704;28;20391;-67
2021/12/05 11:21:47;;;;;;;1.07;0.87;;;;;;;6.08;75.82;95426.31;5093538;28;20397;-67
2021/12/05 11:24:18;;;;;;;1.75;0.95;;;;;;;5.99;75.33;95429.50;5091255;28;20946;-65
2021/12/05 11:27:04;;;;;;;1.60;1.00;;;;;;;5.89;74.58;95422.31;5093280;28;20514;-66
2021/12/05 11:29:52;;;;;;;2.53;1.00;;;;;;;5.78;76.14;95429.09;5092131;28;20867;-66
2021/12/05 11:32:36;;;;;;;2.80;1.05;;;;;;;6.05;74.27;95431.19;5093183;28;20416;-65
2021/12/05 11:35:34;;;;;;;1.37;1.00;;;;;;;6.31;73.25;95433.22;5093251;28;20486;-66
2021/12/05 11:38:18;;;;;;;2.05;1.20;;;;;;;6.37;72.11;95436.72;5092663;28;20735;-66
2021/12/05 11:41:05;;;;;;;0.93;0.90;;;;;;;6.20;72.12;95436.69;5092729;28;20908;-66
2021/12/05 11:43:33;;;;;;;0.80;0.80;;;;;;;6.29;71.84;95427.50;5092601;28;20389;-65
2021/12/05 11:46:07;;;;;;;1.33;1.10;;;;;;;6.47;71.17;95429.09;5108225;28;20396;-66
2021/12/05 11:48:37;;;;;;;1.05;0.90;;;;;;;6.52;71.73;95432.56;5088263;28;20398;-65
2021/12/05 11:51:27;;;;;;;1.40;0.85;;;;;;;6.51;72.06;95438.03;5090032;28;20762;-65
2021/12/05 11:54:13;;;;;;;0.90;0.90;;;;;;;6.88;70.13;95431.34;5092501;28;20455;-66
2021/12/05 11:56:56;;;;;;;1.02;0.80;;;;;;;6.94;69.71;95440.03;5092471;28;20394;-66
2021/12/05 11:59:28;;;;;;;1.15;0.80;;;;;;;7.01;69.54;95435.47;5092583;28;20457;-66
2021/12/05 12:02:13;;;;;;;0.90;0.70;;;;;;;6.71;70.22;95438.38;5093004;28;20444;-66
2021/12/05 12:04:59;;;;;;;0.90;0.70;;;;;;;6.73;70.49;95444.13;5092370;28;20541;-67
2021/12/05 12:07:43;;;;;;;1.30;1.00;;;;;;;7.20;68.51;95447.22;5071431;28;20400;-66
2021/12/05 12:10:14;;;;;;;2.03;0.90;;;;;;;7.06;68.74;95433.72;5085489;28;20400;-68
2021/12/05 12:12:45;;;;;;;1.10;0.90;;;;;;;7.04;68.93;95432.38;5092159;28;20410;-65
2021/12/05 12:15:11;;;;;;;1.52;0.80;;;;;;;6.75;69.68;95436.06;5086949;28;20382;-66
2021/12/05 12:17:37;;;;;;;0.80;0.80;;;;;;;7.04;69.11;95433.16;5092613;28;20405;-66
2021/12/05 12:20:06;;;;;;;1.13;0.83;;;;;;;6.99;69.88;95443.50;5091951;28;20386;-66
2021/12/05 12:22:31;;;;;;;1.10;0.80;;;;;;;7.34;69.69;95448.47;5074954;28;20903;-67
2021/12/05 12:25:01;;;;;;;1.60;1.10;;;;;;;7.56;69.35;95437.31;5092173;28;20465;-66
2021/12/05 12:27:27;;;;;;;1.50;1.00;;;;;;;7.87;67.31;95440.06;5091100;28;20387;-66
2021/12/05 12:29:57;;;;;;;1.63;1.13;;;;;;;7.84;67.13;95440.56;5091972;28;20394;-66
2021/12/05 12:32:30;;;;;;;2.00;0.80;;;;;;;7.97;66.65;95428.94;5092191;28;20410;-66
2021/12/05 12:35:10;;;;;;;1.27;0.90;;;;;;;7.89;68.01;95439.81;5091183;28;20379;-68
2021/12/05 12:37:59;;;;;;;0.80;0.80;;;;;;;7.93;66.30;95446.13;5092330;28;20398;-66
2021/12/05 12:40:43;;;;;;;0.80;0.80;;;;;;;7.98;66.43;95445.38;5092005;28;20394;-66
2021/12/05 12:43:35;;;;;;;1.00;0.90;;;;;;;7.65;67.28;95439.25;5091776;28;20485;-66
2021/12/05 12:46:22;;;;;;;0.80;0.80;;;;;;;7.32;68.34;95437.50;5091644;28;20493;-65
2021/12/05 12:48:51;;;;;;;0.90;0.90;;;;;;;7.30;67.89;95439.53;5090356;28;20401;-66
2021/12/05 12:51:38;;;;;;;0.82;0.82;;;;;;;6.72;69.98;95445.16;5091974;28;20385;-66
2021/12/05 12:54:12;;;;;;;1.23;0.82;;;;;;;6.70;70.16;95442.00;5091679;28;20427;-66
2021/12/05 12:56:40;;;;;;;0.93;0.87;;;;;;;6.49;69.97;95438.25;5090217;28;20750;-66
2021/12/05 12:59:10;;;;;;;1.10;1.00;;;;;;;6.50;70.62;95441.66;5091555;28;20434;-66
2021/12/05 13:05:00;;;;;;;0.93;0.80;;;;;;;6.61;70.15;95439.00;5091718;28;20393;-64
2021/12/05 13:10:30;;;;;;;0.77;0.75;;;;;;;6.84;69.61;95432.88;5090373;28;20401;-66
2021/12/05 13:12:59;;;;;;;1.20;0.80;;;;;;;6.99;68.13;95440.13;5075015;28;20773;-66
2021/12/05 13:15:24;;;;;;;0.60;0.60;;;;;;;7.28;67.07;95439.00;5091349;28;20401;-66
2021/12/05 13:17:51;;;;;;;0.70;0.70;;;;;;;7.26;66.89;95433.22;5091595;28;20390;-66
2021/12/05 13:20:20;;;;;;;0.60;0.60;;;;;;;7.15;67.37;95439.31;5085170;28;20435;-66
2021/12/05 13:23:07;;;;;;;0.80;0.60;;;;;;;6.65;68.43;95441.91;5089386;28;20390;-66
2021/12/05 13:25:54;;;;;;;0.90;0.70;;;;;;;6.44;69.49;95440.78;5091294;28;20829;-66
2021/12/05 13:28:36;;;;;;;0.70;0.70;;;;;;;6.29;70.08;95437.91;5091356;28;20527;-66
2021/12/05 13:31:27;;;;;;;0.63;0.63;;;;;;;6.37;70.17;95447.13;5074291;28;20456;-66
2021/12/05 13:34:30;;;;;;;0.93;0.77;;;;;;;6.37;70.79;95445.31;5091621;28;20397;-66
2021/12/05 13:37:13;;;;;;;0.60;0.60;;;;;;;6.04;70.85;95434.81;5090479;28;20393;-66
2021/12/05 13:39:41;;;;;;;2.05;1.10;;;;;;;6.17;70.07;95444.97;5090762;28;20393;-69
2021/12/05 13:42:25;;;;;;;0.82;0.82;;;;;;;6.35;70.34;95442.19;5091141;28;20398;-66
2021/12/05 13:44:59;;;;;;;0.80;0.80;;;;;;;6.39;69.85;95456.28;5106471;28;20394;-67
2021/12/05 13:47:44;;;;;;;1.30;1.00;;;;;;;6.25;70.58;95453.16;5095024;28;20382;-66
2021/12/05 13:50:19;;;;;;;1.35;0.68;;;;;;;6.06;71.02;95454.38;5095211;28;20945;-68
2021/12/05 13:53:13;;;;;;;0.85;0.80;;;;;;;6.05;72.84;95459.81;5093629;28;20419;-68
2021/12/05 13:55:49;;;;;;;0.80;0.80;;;;;;;6.02;72.16;95463.63;5095255;28;20401;-68
2021/12/05 13:58:28;;;;;;;1.00;0.80;;;;;;;6.03;72.45;95457.41;5094843;28;20488;-68
2021/12/05 14:00:58;;;;;;;1.08;0.85;;;;;;;5.98;72.73;95462.53;5094391;28;20440;-68
2021/12/05 14:03:47;;;;;;;0.75;0.75;;;;;;;5.94;73.09;95465.81;5094558;28;20412;-68
2021/12/05 14:06:24;;;;;;;0.70;0.70;;;;;;;6.00;72.46;95462.31;5094977;28;20394;-67
2021/12/05 14:08:52;;;;;;;0.90;0.85;;;;;;;6.05;71.92;95472.81;5094554;28;20390;-68
2021/12/05 14:11:18;;;;;;;0.98;0.98;;;;;;;5.68;73.92;95473.09;5094734;28;20394;-68
2021/12/05 14:13:43;;;;;;;0.90;0.90;;;;;;;5.65;73.79;95483.13;5094703;28;20941;-67
2021/12/05 14:16:09;;;;;;;0.90;0.90;;;;;;;5.79;73.37;95474.09;5094935;28;20445;-67
2021/12/05 14:18:34;;;;;;;1.02;0.90;;;;;;;5.48;74.74;95485.63;5094745;28;20394;-69
2021/12/05 14:21:18;;;;;;;0.90;0.90;;;;;;;5.31;76.30;95482.91;5094632;28;20531;-68
2021/12/05 14:23:52;;;;;;;1.52;1.00;;;;;;;5.45;75.60;95483.50;5094572;28;20878;-67
2021/12/05 14:26:21;;;;;;;0.90;0.90;;;;;;;5.54;75.15;95486.53;5094740;28;20443;-67
2021/12/05 14:29:12;;;;;;;1.35;1.10;;;;;;;5.75;74.83;95491.13;5094234;28;20382;-68
2021/12/05 14:31:43;;;;;;;1.30;1.10;;;;;;;5.58;75.12;95488.44;5094500;28;20501;-68
2021/12/05 14:34:10;;;;;;;1.38;0.95;;;;;;;5.62;74.91;95488.78;5094615;28;20805;-68
2021/12/05 14:36:44;;;;;;;1.70;0.90;;;;;;;5.75;74.41;95485.94;5093935;28;20765;-68
2021/12/05 14:39:22;;;;;;;1.40;1.02;;;;;;;5.74;74.21;95492.94;5094545;28;20394;-68
2021/12/05 14:41:52;;;;;;;1.00;0.90;;;;;;;5.68;74.34;95490.47;5094100;28;20885;-68
2021/12/05 14:44:18;;;;;;;1.20;1.10;;;;;;;5.59;75.12;95492.63;5094474;28;20389;-67
2021/12/05 14:47:01;;;;;;;1.30;1.15;;;;;;;5.71;74.18;95500.41;5093979;28;20447;-68
2021/12/05 14:49:30;;;;;;;0.90;0.90;;;;;;;5.75;73.86;95504.13;5092791;28;20486;-68
2021/12/05 14:51:58;;;;;;;1.50;1.30;;;;;;;5.63;74.14;95504.13;5094163;28;20405;-69
2021/12/05 14:54:32;;;;;;;1.30;1.20;;;;;;;5.83;73.53;95501.19;5094493;28;20480;-69
2021/12/05 14:56:58;;;;;;;2.60;1.20;;;;;;;5.52;75.27;95507.53;5092819;28;20484;-68
2021/12/05 14:59:25;;;;;;;2.20;1.40;;;;;;;5.57;74.99;95522.47;5092765;28;20413;-68
2021/12/05 15:01:59;;;;;;;2.47;1.40;;;;;;;5.69;74.14;95516.22;5093473;28;20467;-68
2021/12/05 15:04:29;;;;;;;1.33;1.23;;;;;;;5.74;74.78;95520.78;5093517;28;20866;-68
2021/12/05 15:06:55;;;;;;;1.65;1.30;;;;;;;5.56;74.76;95515.69;5079812;28;20822;-68
2021/12/05 15:09:34;;;;;;;1.90;1.30;;;;;;;5.42;75.57;95517.69;5093121;28;20481;-69
2021/12/05 15:12:05;;;;;;;2.23;1.57;;;;;;;5.31;76.00;95519.28;5093406;28;20503;-68
2021/12/05 15:14:32;;;;;;;2.67;1.48;;;;;;;5.47;75.47;95530.00;5093636;28;20401;-68
2021/12/05 15:17:01;;;;;;;1.60;1.40;;;;;;;5.23;76.51;95534.41;5093437;28;20390;-70
2021/12/05 15:19:28;;;;;;;1.17;1.10;;;;;;;5.10;77.81;95534.59;5094118;28;20919;-69
2021/12/05 15:21:53;;;;;;;1.37;1.20;;;;;;;5.07;77.86;95537.66;5094072;28;20500;-69
2021/12/05 15:24:22;;;;;;;1.30;1.20;;;;;;;4.88;77.78;95547.31;5093458;28;20417;-69
2021/12/05 15:26:49;;;;;;;2.35;1.27;;;;;;;4.97;78.33;95548.56;5093630;28;20401;-69
2021/12/05 15:29:15;;;;;;;2.45;1.95;;;;;;;4.85;77.79;95555.50;5093684;28;20398;-70
2021/12/05 15:31:42;;;;;;;2.33;1.80;;;;;;;4.94;77.99;95555.00;5093233;28;20824;-69
2021/12/05 15:34:22;;;;;;;2.58;1.77;;;;;;;4.79;78.63;95561.63;5092222;28;20799;-69
2021/12/05 15:36:47;;;;;;;2.10;1.50;;;;;;;4.88;78.73;95560.28;5093375;28;20406;-70
2021/12/05 15:39:20;;;;;;;1.93;1.50;;;;;;;4.89;78.39;95560.06;5086415;28;20456;-69
2021/12/05 15:41:51;;;;;;;3.17;1.53;;;;;;;4.87;78.99;95556.09;5084678;28;20425;-70
2021/12/05 15:44:35;;;;;;;1.77;1.65;;;;;;;4.79;78.68;95567.56;5091625;28;20390;-69
2021/12/05 15:47:04;;;;;;;2.65;1.70;;;;;;;4.78;78.20;95562.63;5085071;28;20396;-69
2021/12/05 15:50:01;;;;;;;2.50;1.85;;;;;;;4.69;80.52;95569.91;5092640;28;20390;-69
2021/12/05 15:52:37;;;;;;;2.17;1.43;;;;;;;4.40;83.27;95579.22;5093090;28;20774;-69
2021/12/05 15:55:20;;;;;;;5.45;1.63;;;;;;;4.36;83.65;95585.09;5092861;28;20401;-69
2021/12/05 15:57:49;;;;;;;2.08;1.42;;;;;;;4.44;83.60;95580.41;5092615;28;20874;-69
2021/12/05 16:00:26;;;;;;;1.48;1.38;;;;;;;4.51;83.46;95573.31;5092579;28;20410;-69
2021/12/05 16:02:58;;;;;;;1.60;1.50;;;;;;;4.51;83.94;95581.09;5090900;28;20485;-69
2021/12/05 16:05:24;;;;;;;2.83;1.90;;;;;;;4.11;86.00;95582.56;5092750;28;20397;-69
2021/12/05 16:07:51;;;;;;;1.55;1.45;;;;;;;3.79;88.45;95584.47;5093099;28;20547;-69
2021/12/05 16:10:21;;;;;;;1.67;1.50;;;;;;;4.20;87.27;95586.47;5092701;28;20398;-69
2021/12/05 16:12:47;;;;;;;2.88;2.30;;;;;;;4.39;85.37;95597.63;5092560;28;20406;-69
2021/12/05 16:15:17;;;;;;;3.47;2.50;;;;;;;4.41;85.30;95598.19;5092617;28;20813;-69
2021/12/05 16:17:55;;;;;;;3.78;2.40;;;;;;;4.46;84.62;95599.13;5092467;28;20396;-69
2021/12/05 16:20:24;;;;;;;4.53;2.58;;;;;;;4.41;85.63;95595.59;5092891;28;20398;-69
2021/12/05 16:22:59;;;;;;;2.67;2.40;;;;;;;4.23;85.99;95593.81;5091671;28;20902;-70
2021/12/05 16:25:27;;;;;;;3.80;2.28;;;;;;;4.18;86.63;95596.25;5092505;28;20394;-70
2021/12/05 16:28:01;;;;;;;6.23;5.13;;;;;;;4.60;84.65;95595.38;5092560;28;20394;-70
2021/12/05 16:30:32;;;;;;;7.07;4.57;;;;;;;4.52;83.90;95598.25;5092811;28;20469;-70
2021/12/05 16:32:59;;;;;;;4.00;2.92;;;;;;;4.16;85.39;95596.47;5084026;28;20445;-70
2021/12/05 16:35:29;;;;;;;3.63;1.80;;;;;;;4.32;84.98;95594.31;5092269;28;20461;-70
2021/12/05 16:37:55;;;;;;;2.78;2.17;;;;;;;4.39;83.98;95601.03;5091954;28;20386;-70
2021/12/05 16:40:20;;;;;;;2.92;1.98;;;;;;;4.33;84.19;95609.66;5092049;28;20896;-70
2021/12/05 16:42:46;;;;;;;3.40;2.17;;;;;;;4.21;85.11;95600.22;5081145;28;20479;-70
2021/12/05 16:45:12;;;;;;;2.67;2.33;;;;;;;4.25;85.17;95598.78;5088626;28;20398;-69
2021/12/05 16:47:38;;;;;;;5.85;4.38;;;;;;;4.37;85.51;95604.81;5092135;28;20386;-71
2021/12/05 16:50:13;;;;;;;6.88;3.88;;;;;;;4.31;86.43;95603.09;5091727;28;20745;-70
2021/12/05 16:52:47;;;;;;;4.40;3.33;;;;;;;4.52;85.52;95602.66;5092243;28;20821;-70
2021/12/05 16:55:25;;;;;;;4.22;3.10;;;;;;;4.54;85.62;95605.81;5091949;28;20402;-70
2021/12/05 16:58:14;;;;;;;3.72;3.38;;;;;;;4.32;86.53;95615.06;5091511;28;20483;-69
2021/12/05 17:00:42;;;;;;;2.73;2.53;;;;;;;4.37;86.14;95615.19;5091066;28;20417;-70
2021/12/05 17:03:09;;;;;;;3.67;2.93;;;;;;;4.13;87.24;95614.25;5091310;28;20898;-69
2021/12/05 17:05:40;;;;;;;3.83;2.70;;;;;;;4.08;87.61;95617.50;5091736;28;20393;-70
2021/12/05 17:08:13;;;;;;;3.17;2.90;;;;;;;4.17;86.88;95618.00;5091931;28;20388;-70
2021/12/05 17:10:50;;;;;;;3.38;2.90;;;;;;;4.27;86.78;95623.50;5091508;28;20390;-71
2021/12/05 17:13:20;;;;;;;3.33;3.00;;;;;;;4.29;85.76;95616.28;5091703;28;20438;-69
2021/12/05 17:15:51;;;;;;;2.78;2.50;;;;;;;4.12;86.49;95626.41;5091590;28;20423;-68
2021/12/05 17:18:38;;;;;;;3.30;2.90;;;;;;;4.06;86.33;95624.72;5091913;28;20869;-69